KGED/GED METAR and TAF weather

Enter ICAO airport designator
Station Type Date Time Source
KGED METAR 2021/09/28 15:54 UTC NOAA

KGED 281554Z AUTO VRB04KT 10SM CLR 27/17 A2988 RMK AO2 SLP119 T02720172


Station Type Date Time Source
KGED Decoded METAR 2021/09/28 15:54 UTC NOAA

GEORGETOWN SUSSEX CO AIRPORT , DE, United States (KGED) 38-41N 075-22W 19M
Sep 28, 2021 - 11:54 AM EDT / 2021.09.28 1554 UTC
Wind: Variable at 5 MPH (4 KT):0
Visibility: 10 mile(s):0
Sky conditions: clear
Temperature: 81.0 F (27.2 C)
Dew Point: 63.0 F (17.2 C)
Relative Humidity: 54%
Pressure (altimeter): 29.88 in. Hg (1011 hPa)
ob: KGED 281554Z AUTO VRB04KT 10SM CLR 27/17 A2988 RMK AO2 SLP119 T02720172
cycle: 16

Station Type Date Time Source
KGED TAF UTC NOAA

Error!

Example: see airport list